KHWO/HWO METAR and TAF weather

Enter ICAO airport designator
Station Type Date Time Source
KHWO METAR 2021/07/30 05:53 UTC NOAA

KHWO 300553Z AUTO 36003KT 10SM CLR 26/23 A3005 RMK AO2 SLP174 T02560228 10267 20250 58007


Station Type Date Time Source
KHWO Decoded METAR 2021/07/30 05:53 UTC NOAA

HOLLYWOOD NORTH PERRY AIRPORT , FL, United States (KHWO) 26-00N 080-14W 2M
Jul 30, 2021 - 01:53 AM EDT / 2021.07.30 0553 UTC
Wind: from the N (360 degrees) at 3 MPH (3 KT):0
Visibility: 10 mile(s):0
Sky conditions: clear
Temperature: 78.1 F (25.6 C)
Dew Point: 73.0 F (22.8 C)
Relative Humidity: 84%
Pressure (altimeter): 30.05 in. Hg (1017 hPa)
Pressure tendency: 0.02 inches (0.7 hPa) lower than three hours ago
ob: KHWO 300553Z AUTO 36003KT 10SM CLR 26/23 A3005 RMK AO2 SLP174 T02560228 10267 20250 58007
cycle: 6

Station Type Date Time Source
KHWO TAF 2020/02/03 18:20 UTC NOAA

TAF KHWO 031720Z 0318/0418 12005KT P6SM SKC
FM040000 VRB03KT P6SM SKC
FM041500 14010KT P6SM FEW030

Example: see airport list